createdAt,value
2022-12-20T00:01:12.589Z,56.00
2022-12-20T00:03:39.719Z,58.40
2022-12-20T00:06:07.259Z,58.30
2022-12-20T00:08:37.353Z,56.00
2022-12-20T00:11:06.260Z,56.50
2022-12-20T00:13:33.673Z,56.10
2022-12-20T00:16:21.790Z,56.10
2022-12-20T00:18:52.484Z,56.10
2022-12-20T00:21:20.648Z,56.60
2022-12-20T00:23:47.502Z,56.10
2022-12-20T00:26:17.092Z,56.20
2022-12-20T00:28:45.450Z,56.70
2022-12-20T00:31:14.795Z,56.20
2022-12-20T00:33:45.468Z,56.20
2022-12-20T00:36:12.815Z,56.20
2022-12-20T00:38:39.592Z,56.20
2022-12-20T00:41:07.949Z,56.20
2022-12-20T00:43:38.042Z,56.30
2022-12-20T00:46:05.664Z,57.40
2022-12-20T00:48:33.514Z,57.00
2022-12-20T00:51:01.944Z,57.40
2022-12-20T00:53:29.233Z,56.90
2022-12-20T00:55:56.823Z,56.30
2022-12-20T00:58:23.549Z,56.40
2022-12-20T01:00:55.713Z,56.30
2022-12-20T01:03:24.367Z,56.40
2022-12-20T01:06:00.011Z,57.00
2022-12-20T01:08:29.355Z,58.70
2022-12-20T01:11:07.988Z,56.40
2022-12-20T01:13:37.238Z,57.10
2022-12-20T01:16:17.229Z,56.50
2022-12-20T01:18:45.287Z,57.10
2022-12-20T01:21:14.369Z,57.20
2022-12-20T01:23:41.541Z,57.10
2022-12-20T01:26:11.653Z,56.50
2022-12-20T01:28:40.828Z,58.70
2022-12-20T01:31:13.691Z,56.60
2022-12-20T01:33:40.555Z,57.20
2022-12-20T01:36:11.219Z,56.70
2022-12-20T01:38:37.957Z,57.30
2022-12-20T01:41:05.170Z,57.30
2022-12-20T01:44:05.851Z,56.70
2022-12-20T01:46:36.051Z,57.30
2022-12-20T01:49:14.542Z,56.70
2022-12-20T01:51:45.109Z,57.20
2022-12-20T01:54:15.647Z,58.40
2022-12-20T01:56:48.299Z,56.70
2022-12-20T01:59:15.238Z,56.70
2022-12-20T02:01:43.836Z,56.70
2022-12-20T02:04:12.309Z,57.70
2022-12-20T02:06:39.209Z,56.80
2022-12-20T02:09:08.402Z,56.80
2022-12-20T02:11:53.639Z,56.90
2022-12-20T02:14:36.498Z,57.70
2022-12-20T02:17:12.847Z,58.30
2022-12-20T02:20:07.434Z,57.00
2022-12-20T02:23:05.945Z,57.60
2022-12-20T02:25:57.618Z,57.60
2022-12-20T02:29:01.579Z,57.60
2022-12-20T02:31:37.601Z,57.10
2022-12-20T02:34:05.755Z,57.50
2022-12-20T02:36:32.508Z,57.70
2022-12-20T02:38:59.300Z,57.20
2022-12-20T02:41:45.675Z,57.20
2022-12-20T02:44:36.708Z,59.50
2022-12-20T02:47:07.529Z,59.50
2022-12-20T02:49:44.016Z,57.80
2022-12-20T02:52:13.798Z,58.50
2022-12-20T02:54:41.015Z,57.80
2022-12-20T02:57:59.704Z,57.30
2022-12-20T03:00:33.960Z,57.90
2022-12-20T03:03:20.193Z,59.50
2022-12-20T03:05:48.704Z,59.70
2022-12-20T03:08:18.827Z,59.70
2022-12-20T03:10:45.622Z,57.20
2022-12-20T03:13:12.336Z,57.20
2022-12-20T03:15:46.526Z,57.20
2022-12-20T03:18:13.428Z,57.20
2022-12-20T03:20:40.311Z,57.20
2022-12-20T03:23:07.558Z,57.20
2022-12-20T03:25:34.367Z,57.20
2022-12-20T03:28:03.170Z,57.30
2022-12-20T03:30:30.240Z,57.30
2022-12-20T03:32:57.152Z,57.30
2022-12-20T03:35:23.854Z,57.30
2022-12-20T03:37:50.591Z,57.30
2022-12-20T03:40:17.681Z,57.30
2022-12-20T03:42:45.274Z,57.30
2022-12-20T03:45:12.504Z,57.30
2022-12-20T03:47:39.639Z,58.60
2022-12-20T03:50:07.739Z,57.30
2022-12-20T03:52:35.613Z,58.00
2022-12-20T03:55:03.375Z,57.30
2022-12-20T03:57:37.429Z,57.30
2022-12-20T04:00:07.765Z,58.10
2022-12-20T04:02:41.620Z,58.00
2022-12-20T04:05:11.119Z,59.20
2022-12-20T04:07:38.354Z,57.30
2022-12-20T04:10:06.105Z,59.00
2022-12-20T04:12:33.035Z,58.00
2022-12-20T04:15:00.092Z,57.40
2022-12-20T04:17:28.353Z,59.00
2022-12-20T04:19:55.956Z,57.30
2022-12-20T04:22:23.005Z,57.30
2022-12-20T04:24:56.254Z,57.30
2022-12-20T04:27:25.822Z,57.30
2022-12-20T04:29:54.623Z,57.30
2022-12-20T04:32:22.291Z,57.30
2022-12-20T04:34:49.577Z,57.90
2022-12-20T04:37:17.047Z,57.80
2022-12-20T04:39:51.825Z,57.30
2022-12-20T04:42:21.363Z,57.90
2022-12-20T04:44:49.260Z,58.00
2022-12-20T04:47:21.407Z,57.20
2022-12-20T04:49:48.645Z,58.30
2022-12-20T04:52:34.003Z,57.30
2022-12-20T04:55:00.735Z,59.20
2022-12-20T04:57:31.039Z,57.30
2022-12-20T04:59:59.045Z,57.30
2022-12-20T05:02:25.920Z,57.30
2022-12-20T05:04:58.955Z,57.30
2022-12-20T05:07:26.207Z,57.30
2022-12-20T05:09:55.629Z,57.40
2022-12-20T05:12:22.328Z,58.30
2022-12-20T05:14:49.104Z,58.10
2022-12-20T05:17:19.996Z,58.00
2022-12-20T05:19:47.074Z,57.40
2022-12-20T05:22:34.243Z,57.40
2022-12-20T05:25:29.895Z,57.30
2022-12-20T05:27:59.865Z,57.50
2022-12-20T05:30:29.752Z,57.50
2022-12-20T05:32:56.513Z,57.50
2022-12-20T05:35:23.261Z,57.50
2022-12-20T05:37:56.080Z,57.50
2022-12-20T05:40:22.863Z,57.50
2022-12-20T05:42:50.284Z,57.50
2022-12-20T05:45:17.171Z,57.50
2022-12-20T05:47:50.032Z,58.90
2022-12-20T05:50:19.126Z,57.50
2022-12-20T05:53:17.927Z,57.50
2022-12-20T05:55:51.819Z,57.60
2022-12-20T05:58:20.025Z,57.60
2022-12-20T06:00:53.457Z,57.60
2022-12-20T06:03:20.936Z,57.50
2022-12-20T06:05:48.083Z,57.60
2022-12-20T06:08:23.472Z,57.60
2022-12-20T06:10:51.539Z,57.60
2022-12-20T06:13:20.804Z,57.60
2022-12-20T06:15:48.520Z,57.70
2022-12-20T06:18:15.339Z,57.70
2022-12-20T06:20:42.220Z,57.60
2022-12-20T06:23:11.968Z,57.70
2022-12-20T06:25:45.071Z,57.70
2022-12-20T06:28:12.076Z,57.70
2022-12-20T06:30:38.816Z,57.70
2022-12-20T06:33:07.687Z,58.40
2022-12-20T06:35:34.429Z,57.80
2022-12-20T06:38:01.221Z,57.80
2022-12-20T06:40:31.372Z,57.80
2022-12-20T06:43:00.601Z,57.90
2022-12-20T06:45:28.064Z,57.90
2022-12-20T06:47:56.907Z,57.90
2022-12-20T06:50:24.194Z,57.90
2022-12-20T06:52:50.904Z,58.00
2022-12-20T06:55:17.704Z,58.00
2022-12-20T06:57:45.262Z,58.80
2022-12-20T07:00:13.044Z,58.10
2022-12-20T07:02:39.861Z,58.10
2022-12-20T07:05:06.949Z,58.10
2022-12-20T07:07:36.172Z,58.10
2022-12-20T07:10:08.369Z,58.20
2022-12-20T07:12:35.172Z,58.20
2022-12-20T07:15:01.871Z,59.00
2022-12-20T07:17:28.543Z,58.30
2022-12-20T07:19:55.257Z,58.40
2022-12-20T07:22:21.963Z,58.40
2022-12-20T07:24:49.923Z,58.40
2022-12-20T07:27:17.294Z,58.40
2022-12-20T07:29:44.675Z,58.50
2022-12-20T07:32:12.824Z,58.40
2022-12-20T07:34:39.601Z,58.50
2022-12-20T07:37:06.389Z,58.60
2022-12-20T07:39:33.130Z,58.50
2022-12-20T07:41:59.987Z,58.50
2022-12-20T07:44:26.852Z,58.50
2022-12-20T07:46:53.596Z,58.60
2022-12-20T07:49:20.349Z,58.60
2022-12-20T07:51:51.405Z,58.60
2022-12-20T07:54:21.593Z,59.10
2022-12-20T07:56:52.739Z,61.50
2022-12-20T07:59:25.274Z,58.60
2022-12-20T08:01:52.396Z,58.70
2022-12-20T08:04:24.336Z,58.60
2022-12-20T08:06:54.133Z,58.70
2022-12-20T08:09:20.867Z,61.20
2022-12-20T08:11:48.803Z,58.70
2022-12-20T08:14:18.425Z,58.70
2022-12-20T08:16:45.326Z,60.30
2022-12-20T08:19:12.615Z,58.70
2022-12-20T08:21:39.412Z,58.80
2022-12-20T08:24:06.358Z,59.40
2022-12-20T08:26:40.566Z,58.80
2022-12-20T08:29:07.937Z,58.80
2022-12-20T08:31:38.636Z,58.80
2022-12-20T08:34:06.396Z,60.40
2022-12-20T08:36:33.121Z,59.40
2022-12-20T08:39:03.914Z,58.90
2022-12-20T08:41:30.933Z,60.80
2022-12-20T08:43:57.667Z,58.90
2022-12-20T08:46:24.530Z,58.90
2022-12-20T08:48:51.889Z,58.90
2022-12-20T08:51:18.769Z,59.50
2022-12-20T08:53:45.566Z,58.90
2022-12-20T08:56:14.157Z,59.70
2022-12-20T08:58:41.618Z,59.00
2022-12-20T09:01:11.902Z,61.10
2022-12-20T09:03:40.245Z,61.90
2022-12-20T09:06:09.374Z,59.00
2022-12-20T09:08:37.787Z,59.70
2022-12-20T09:11:06.089Z,59.00
2022-12-20T09:13:37.921Z,59.90
2022-12-20T09:16:09.063Z,59.10
2022-12-20T09:18:36.216Z,59.10
2022-12-20T09:21:05.086Z,59.10
2022-12-20T09:23:33.098Z,59.90
2022-12-20T09:26:08.201Z,59.30
2022-12-20T09:28:35.290Z,59.30
2022-12-20T09:31:04.767Z,60.40
2022-12-20T09:33:32.564Z,59.20
2022-12-20T09:35:59.915Z,59.30
2022-12-20T09:38:28.748Z,59.30
2022-12-20T09:40:58.768Z,59.90
2022-12-20T09:43:25.691Z,61.90
2022-12-20T09:45:56.211Z,59.30
2022-12-20T09:48:28.742Z,59.40
2022-12-20T09:51:10.598Z,59.40
2022-12-20T09:54:22.769Z,59.40
2022-12-20T09:57:07.969Z,59.50
2022-12-20T09:59:41.299Z,60.20
2022-12-20T10:02:35.409Z,59.50
2022-12-20T10:04:59.357Z,59.60
2022-12-20T10:07:46.793Z,59.60
2022-12-20T10:10:43.022Z,59.60
2022-12-20T10:13:27.772Z,59.70
2022-12-20T10:16:06.632Z,59.70
2022-12-20T10:19:13.759Z,59.80
2022-12-20T10:21:58.647Z,59.70
2022-12-20T10:24:33.105Z,59.80
2022-12-20T10:27:13.936Z,59.80
2022-12-20T10:29:41.506Z,59.80
2022-12-20T10:32:21.185Z,59.80
2022-12-20T10:34:57.132Z,60.60
2022-12-20T10:37:24.032Z,60.50
2022-12-20T10:39:51.879Z,59.90
2022-12-20T10:42:27.685Z,59.90
2022-12-20T10:44:55.836Z,60.00
2022-12-20T10:47:30.820Z,60.60
2022-12-20T10:50:18.105Z,60.10
2022-12-20T10:52:46.201Z,60.90
2022-12-20T10:55:38.128Z,61.50
2022-12-20T10:58:29.757Z,60.90
2022-12-20T11:01:15.688Z,61.00
2022-12-20T11:03:59.630Z,60.90
2022-12-20T11:06:48.933Z,60.30
2022-12-20T11:09:27.113Z,60.30
2022-12-20T11:12:02.607Z,61.80
2022-12-20T11:14:38.390Z,60.40
2022-12-20T11:17:21.805Z,60.40
2022-12-20T11:20:23.813Z,60.50
2022-12-20T11:23:01.468Z,60.50
2022-12-20T11:26:06.443Z,60.50
2022-12-20T11:28:51.783Z,60.60
2022-12-20T11:32:01.360Z,61.40
2022-12-20T11:34:40.199Z,60.60
2022-12-20T11:37:23.889Z,61.40
2022-12-20T11:40:28.364Z,61.40
2022-12-20T11:43:31.605Z,61.40
2022-12-20T11:46:32.540Z,61.50
2022-12-20T11:49:41.826Z,61.50
2022-12-20T11:52:17.420Z,61.50
2022-12-20T11:54:53.342Z,61.50
2022-12-20T11:57:38.368Z,60.80
2022-12-20T12:00:18.503Z,62.20
2022-12-20T12:02:58.465Z,60.90
2022-12-20T12:05:49.089Z,62.80
2022-12-20T12:08:25.518Z,61.50
2022-12-20T12:11:03.927Z,63.80
2022-12-20T12:13:35.093Z,64.00
2022-12-20T12:16:12.822Z,63.00
2022-12-20T12:18:42.056Z,61.80
2022-12-20T12:21:25.342Z,61.10
2022-12-20T12:24:12.397Z,61.10
2022-12-20T12:26:40.973Z,61.00
2022-12-20T12:29:13.747Z,61.20
2022-12-20T12:32:12.391Z,61.80
2022-12-20T12:34:57.991Z,61.90
2022-12-20T12:37:49.772Z,61.20
2022-12-20T12:40:38.160Z,62.00
2022-12-20T12:43:42.800Z,62.00
2022-12-20T12:46:31.223Z,62.00
2022-12-20T12:49:06.596Z,62.00
2022-12-20T12:51:37.322Z,62.10
2022-12-20T12:54:17.393Z,61.40
2022-12-20T12:56:48.903Z,62.20
2022-12-20T12:59:43.889Z,62.10
2022-12-20T13:02:13.544Z,61.40
2022-12-20T13:05:04.137Z,61.40
2022-12-20T13:07:33.854Z,62.10
2022-12-20T13:10:24.689Z,61.40
2022-12-20T13:12:52.522Z,63.10
2022-12-20T13:15:22.727Z,60.80
2022-12-20T13:17:52.174Z,61.60
2022-12-20T13:20:26.043Z,62.30
2022-12-20T13:23:08.719Z,61.60
2022-12-20T13:25:52.130Z,61.60
2022-12-20T13:28:22.633Z,61.60
2022-12-20T13:31:01.432Z,62.50
2022-12-20T13:33:45.415Z,62.40
2022-12-20T13:36:12.122Z,63.80
2022-12-20T13:38:49.973Z,61.80
2022-12-20T13:41:22.706Z,62.60
2022-12-20T13:43:51.343Z,64.10
2022-12-20T13:46:30.202Z,65.00
2022-12-20T13:49:03.074Z,62.60
2022-12-20T13:51:30.589Z,64.20
2022-12-20T13:54:01.650Z,61.80
2022-12-20T13:56:28.605Z,61.90
2022-12-20T13:58:56.113Z,61.90
2022-12-20T14:01:23.952Z,62.00
2022-12-20T14:03:52.623Z,61.90
2022-12-20T14:06:26.586Z,64.80
2022-12-20T14:08:53.661Z,61.90
2022-12-20T14:11:26.662Z,61.90
2022-12-20T14:13:57.418Z,61.90
2022-12-20T14:16:26.459Z,61.90
2022-12-20T14:19:04.131Z,61.90
2022-12-20T14:21:31.102Z,62.70
2022-12-20T14:23:58.808Z,62.90
2022-12-20T14:26:27.024Z,62.80
2022-12-20T14:28:57.543Z,62.80
2022-12-20T14:31:37.473Z,62.00
2022-12-20T14:34:16.416Z,62.80
2022-12-20T14:36:44.514Z,62.80
2022-12-20T14:39:30.539Z,62.10
2022-12-20T14:41:57.712Z,62.10
2022-12-20T14:44:25.652Z,62.20
2022-12-20T14:46:53.575Z,62.00
2022-12-20T14:49:32.632Z,62.90
2022-12-20T14:52:07.131Z,63.80
2022-12-20T14:55:06.249Z,62.80
2022-12-20T14:57:23.706Z,62.00
2022-12-20T14:59:59.294Z,62.10
2022-12-20T15:02:44.994Z,62.10
2022-12-20T15:05:35.093Z,62.20
2022-12-20T15:08:20.196Z,62.90
2022-12-20T15:10:55.707Z,62.90
2022-12-20T15:13:30.425Z,63.00
2022-12-20T15:16:00.883Z,62.20
2022-12-20T15:18:27.646Z,62.20
2022-12-20T15:21:02.760Z,62.20
2022-12-20T15:23:29.515Z,62.90
2022-12-20T15:25:56.308Z,62.20
2022-12-20T15:28:24.424Z,62.50
2022-12-20T15:30:51.926Z,63.10
2022-12-20T15:33:29.551Z,62.20
2022-12-20T15:35:56.457Z,63.00
2022-12-20T15:38:40.573Z,63.40
2022-12-20T15:41:17.008Z,63.10
2022-12-20T15:43:43.664Z,63.10
2022-12-20T15:46:10.534Z,62.40
2022-12-20T15:48:37.297Z,63.40
2022-12-20T15:51:12.091Z,62.40
2022-12-20T15:53:38.746Z,63.30
2022-12-20T15:56:05.659Z,62.40
2022-12-20T15:58:32.439Z,62.40
2022-12-20T16:01:00.722Z,62.40
2022-12-20T16:03:30.379Z,62.40
2022-12-20T16:05:57.404Z,63.20
2022-12-20T16:08:24.095Z,62.40
2022-12-20T16:10:52.062Z,63.60
2022-12-20T16:13:23.087Z,63.30
2022-12-20T16:15:50.365Z,63.30
2022-12-20T16:18:17.204Z,63.40
2022-12-20T16:20:44.348Z,63.60
2022-12-20T16:23:18.449Z,62.50
2022-12-20T16:25:45.615Z,63.30
2022-12-20T16:28:12.300Z,62.50
2022-12-20T16:30:39.103Z,63.50
2022-12-20T16:33:08.533Z,62.50
2022-12-20T16:35:37.238Z,62.50
2022-12-20T16:38:04.153Z,62.50
2022-12-20T16:40:32.397Z,62.50
2022-12-20T16:42:59.508Z,63.40
2022-12-20T16:45:28.441Z,63.40
2022-12-20T16:47:55.544Z,62.60
2022-12-20T16:50:23.393Z,62.60
2022-12-20T16:52:50.728Z,63.40
2022-12-20T16:55:21.688Z,63.40
2022-12-20T16:57:48.780Z,63.40
2022-12-20T17:00:16.837Z,62.70
2022-12-20T17:02:44.584Z,62.70
2022-12-20T17:05:27.358Z,62.70
2022-12-20T17:07:54.100Z,63.40
2022-12-20T17:10:21.191Z,62.70
2022-12-20T17:12:47.843Z,62.70
2022-12-20T17:15:25.016Z,63.70
2022-12-20T17:17:51.706Z,63.40
2022-12-20T17:20:19.539Z,62.70
2022-12-20T17:22:50.478Z,63.60
2022-12-20T17:25:18.746Z,63.40
2022-12-20T17:27:45.332Z,62.80
2022-12-20T17:30:12.403Z,62.70
2022-12-20T17:32:39.176Z,62.70
2022-12-20T17:35:08.176Z,63.80
2022-12-20T17:37:35.180Z,63.60
2022-12-20T17:40:01.841Z,63.70
2022-12-20T17:42:31.401Z,62.70
2022-12-20T17:44:58.595Z,63.90
2022-12-20T17:47:25.474Z,62.80
2022-12-20T17:49:52.158Z,63.80
2022-12-20T17:52:20.472Z,62.70
2022-12-20T17:54:47.167Z,62.70
2022-12-20T17:57:15.526Z,62.70
2022-12-20T17:59:42.690Z,62.80
2022-12-20T18:02:23.503Z,63.60
2022-12-20T18:04:50.802Z,63.50
2022-12-20T18:07:17.568Z,63.60
2022-12-20T18:09:46.281Z,62.80
2022-12-20T18:12:14.564Z,62.80
2022-12-20T18:14:41.243Z,63.70
2022-12-20T18:17:07.938Z,63.60
2022-12-20T18:19:34.684Z,62.70
2022-12-20T18:22:01.470Z,62.80
2022-12-20T18:24:28.213Z,62.70
2022-12-20T18:26:54.846Z,62.70
2022-12-20T18:29:21.460Z,62.70
2022-12-20T18:31:48.258Z,64.90
2022-12-20T18:34:14.940Z,62.80
2022-12-20T18:36:41.635Z,62.80
2022-12-20T18:39:08.600Z,62.80
2022-12-20T18:41:35.404Z,63.70
2022-12-20T18:44:03.537Z,63.80
2022-12-20T18:46:30.568Z,63.60
2022-12-20T18:48:58.653Z,62.80
2022-12-20T18:51:32.977Z,63.60
2022-12-20T18:53:59.902Z,62.80
2022-12-20T18:56:29.351Z,62.70
2022-12-20T18:58:56.606Z,63.60
2022-12-20T19:01:24.659Z,64.30
2022-12-20T19:03:52.013Z,63.60
2022-12-20T19:06:19.037Z,62.70
2022-12-20T19:08:45.763Z,62.70
2022-12-20T19:11:13.706Z,62.80
2022-12-20T19:13:41.591Z,63.50
2022-12-20T19:16:18.689Z,63.50
2022-12-20T19:18:45.469Z,63.40
2022-12-20T19:21:12.094Z,62.60
2022-12-20T19:23:39.601Z,62.50
2022-12-20T19:26:07.202Z,63.40
2022-12-20T19:28:34.447Z,62.40
2022-12-20T19:31:08.140Z,62.40
2022-12-20T19:33:38.751Z,63.20
2022-12-20T19:36:12.436Z,63.10
2022-12-20T19:38:42.735Z,63.00
2022-12-20T19:41:09.622Z,62.30
2022-12-20T19:43:36.364Z,63.30
2022-12-20T19:46:03.299Z,63.10
2022-12-20T19:48:32.886Z,62.10
2022-12-20T19:51:02.902Z,63.00
2022-12-20T19:53:29.628Z,62.10
2022-12-20T19:55:56.374Z,62.00
2022-12-20T19:58:23.119Z,61.90
2022-12-20T20:00:50.426Z,63.90
2022-12-20T20:03:17.279Z,62.70
2022-12-20T20:05:44.105Z,63.00
2022-12-20T20:08:10.875Z,63.00
2022-12-20T20:10:37.513Z,63.00
2022-12-20T20:13:04.400Z,62.80
2022-12-20T20:15:31.117Z,61.70
2022-12-20T20:17:58.554Z,61.50
2022-12-20T20:20:25.197Z,61.60
2022-12-20T20:22:51.930Z,62.60
2022-12-20T20:25:18.794Z,61.50
2022-12-20T20:27:45.594Z,61.50
2022-12-20T20:30:14.257Z,61.50
2022-12-20T20:32:41.967Z,61.40
2022-12-20T20:35:09.359Z,63.00
2022-12-20T20:37:36.079Z,62.20
2022-12-20T20:40:03.710Z,61.40
2022-12-20T20:42:30.396Z,61.30
2022-12-20T20:44:57.105Z,61.30
2022-12-20T20:47:23.822Z,61.30
2022-12-20T20:49:52.616Z,61.20
2022-12-20T20:52:19.729Z,61.10
2022-12-20T20:54:46.465Z,61.20
2022-12-20T20:57:13.386Z,62.20
2022-12-20T20:59:40.103Z,62.20
2022-12-20T21:02:06.810Z,60.70
2022-12-20T21:04:33.592Z,61.10
2022-12-20T21:07:00.243Z,61.00
2022-12-20T21:09:26.844Z,62.10
2022-12-20T21:11:53.651Z,61.00
2022-12-20T21:14:37.576Z,61.00
2022-12-20T21:17:07.374Z,61.00
2022-12-20T21:19:34.013Z,60.90
2022-12-20T21:22:00.592Z,60.80
2022-12-20T21:24:27.427Z,60.90
2022-12-20T21:26:55.232Z,60.80
2022-12-20T21:29:22.164Z,60.80
2022-12-20T21:31:49.065Z,60.70
2022-12-20T21:34:15.768Z,60.70
2022-12-20T21:36:42.604Z,60.70
2022-12-20T21:39:12.583Z,60.60
2022-12-20T21:41:39.279Z,60.60
2022-12-20T21:44:05.993Z,61.70
2022-12-20T21:46:32.874Z,60.60
2022-12-20T21:48:59.753Z,61.50
2022-12-20T21:51:27.290Z,61.50
2022-12-20T21:53:55.352Z,61.30
2022-12-20T21:56:22.523Z,60.40
2022-12-20T21:58:49.223Z,61.30
2022-12-20T22:01:16.787Z,60.40
2022-12-20T22:03:45.273Z,60.40
2022-12-20T22:06:12.413Z,61.10
2022-12-20T22:08:39.158Z,62.00
2022-12-20T22:11:09.724Z,60.30
2022-12-20T22:13:41.671Z,62.20
2022-12-20T22:16:25.416Z,60.90
2022-12-20T22:18:53.773Z,61.10
2022-12-20T22:21:24.903Z,61.20
2022-12-20T22:23:51.844Z,61.00
2022-12-20T22:26:20.616Z,62.50
2022-12-20T22:28:51.884Z,61.20
2022-12-20T22:31:18.797Z,61.00
2022-12-20T22:33:45.961Z,61.40
2022-12-20T22:36:13.732Z,60.30
2022-12-20T22:38:40.679Z,61.20
2022-12-20T22:41:14.408Z,60.30
2022-12-20T22:43:41.499Z,60.30
2022-12-20T22:46:10.438Z,60.30
2022-12-20T22:48:37.340Z,61.20
2022-12-20T22:51:03.989Z,60.30
2022-12-20T22:53:34.033Z,61.30
2022-12-20T22:56:00.991Z,60.40
2022-12-20T22:58:28.713Z,61.10
2022-12-20T23:00:56.770Z,61.10
2022-12-20T23:03:23.968Z,61.00
2022-12-20T23:05:54.463Z,61.20
2022-12-20T23:08:21.680Z,61.00
2022-12-20T23:11:07.067Z,61.00
2022-12-20T23:13:52.671Z,60.30
2022-12-20T23:16:19.582Z,60.30
2022-12-20T23:18:46.251Z,60.30
2022-12-20T23:21:31.359Z,61.30
2022-12-20T23:23:57.957Z,61.20
2022-12-20T23:26:26.309Z,60.30
2022-12-20T23:28:52.892Z,60.20
2022-12-20T23:31:19.609Z,60.20
2022-12-20T23:33:48.344Z,60.20
2022-12-20T23:36:15.076Z,60.20
2022-12-20T23:38:41.764Z,60.20
2022-12-20T23:41:14.369Z,60.20
2022-12-20T23:43:41.768Z,61.00
2022-12-20T23:46:12.714Z,60.20
2022-12-20T23:48:39.717Z,60.20
2022-12-20T23:51:06.728Z,60.20
2022-12-20T23:53:33.444Z,61.00
2022-12-20T23:56:05.252Z,60.20
2022-12-20T23:58:32.342Z,60.90
